createdAt,value
2022-09-22T00:00:55.875Z,78.58
2022-09-22T00:06:20.839Z,79.32
2022-09-22T00:11:45.067Z,77.94
2022-09-22T00:17:07.108Z,78.41
2022-09-22T00:22:29.897Z,76.80
2022-09-22T00:27:54.406Z,77.21
2022-09-22T00:33:16.168Z,77.71
2022-09-22T00:38:39.394Z,78.85
2022-09-22T00:44:25.893Z,79.36
2022-09-22T00:49:50.340Z,80.45
2022-09-22T00:55:18.669Z,80.35
2022-09-22T01:00:40.710Z,79.35
2022-09-22T01:06:06.368Z,78.05
2022-09-22T01:11:29.830Z,76.65
2022-09-22T01:17:13.140Z,76.50
2022-09-22T01:23:06.745Z,77.85
2022-09-22T01:29:07.076Z,78.94
2022-09-22T01:34:36.507Z,80.03
2022-09-22T01:40:04.301Z,80.05
2022-09-22T01:45:32.304Z,80.09
2022-09-22T01:51:11.991Z,80.42
2022-09-22T01:56:36.669Z,81.62
2022-09-22T02:02:06.140Z,82.38
2022-09-22T02:07:34.256Z,81.87
2022-09-22T02:12:56.130Z,82.04
2022-09-22T02:18:26.606Z,82.23
2022-09-22T02:23:49.440Z,83.02
2022-09-22T02:29:12.973Z,82.55
2022-09-22T02:34:35.050Z,82.44
2022-09-22T02:40:05.484Z,82.90
2022-09-22T02:45:53.577Z,82.48
2022-09-22T02:51:16.239Z,82.73
2022-09-22T02:56:38.048Z,82.31
2022-09-22T03:01:59.961Z,82.25
2022-09-22T03:07:21.807Z,81.50
2022-09-22T03:13:08.969Z,81.40
2022-09-22T03:18:25.624Z,80.73
2022-09-22T03:23:47.367Z,80.56
2022-09-22T03:29:09.329Z,80.91
2022-09-22T03:34:31.053Z,81.06
2022-09-22T03:39:53.000Z,80.58
2022-09-22T03:45:15.518Z,80.81
2022-09-22T03:50:37.218Z,81.39
2022-09-22T03:56:12.111Z,81.19
2022-09-22T04:01:34.138Z,81.36
2022-09-22T04:06:56.207Z,81.36
2022-09-22T04:12:17.915Z,82.22
2022-09-22T04:17:40.007Z,82.26
2022-09-22T04:23:01.962Z,82.57
2022-09-22T04:28:23.670Z,82.15
2022-09-22T04:33:45.762Z,82.51
2022-09-22T04:39:07.477Z,82.71
2022-09-22T04:44:32.196Z,82.85
2022-09-22T04:49:56.681Z,83.17
2022-09-22T04:55:20.965Z,81.79
2022-09-22T05:00:42.966Z,81.10
2022-09-22T05:06:06.225Z,81.20
2022-09-22T05:11:28.322Z,80.95
2022-09-22T05:16:50.040Z,81.93
2022-09-22T05:22:12.213Z,82.42
2022-09-22T05:27:34.086Z,82.05
2022-09-22T05:32:55.907Z,82.33
2022-09-22T05:38:17.624Z,83.01
2022-09-22T05:43:39.486Z,83.81
2022-09-22T05:49:01.297Z,85.15
2022-09-22T05:54:24.464Z,86.25
2022-09-22T05:59:46.231Z,85.89
2022-09-22T06:05:08.360Z,85.15
2022-09-22T06:10:35.574Z,85.78
2022-09-22T06:15:57.290Z,84.67
2022-09-22T06:21:19.019Z,85.56
2022-09-22T06:26:40.745Z,85.04
2022-09-22T06:32:02.501Z,84.78
2022-09-22T06:37:24.270Z,84.92
2022-09-22T06:42:46.346Z,84.76
2022-09-22T06:48:10.911Z,83.44
2022-09-22T06:53:32.617Z,83.01
2022-09-22T06:59:09.945Z,82.69
2022-09-22T07:04:32.389Z,82.05
2022-09-22T07:09:55.012Z,82.79
2022-09-22T07:15:16.769Z,82.70
2022-09-22T07:20:38.474Z,81.47
2022-09-22T07:26:03.789Z,80.10
2022-09-22T07:31:29.061Z,79.29
2022-09-22T07:36:54.427Z,78.74
2022-09-22T07:42:16.964Z,77.70
2022-09-22T07:47:57.285Z,76.82
2022-09-22T07:53:19.003Z,77.06
2022-09-22T07:58:49.895Z,75.94
2022-09-22T08:04:13.935Z,76.38
2022-09-22T08:09:35.985Z,75.29
2022-09-22T08:14:58.026Z,74.85
2022-09-22T08:20:20.133Z,73.62
2022-09-22T08:25:42.997Z,73.21
2022-09-22T08:31:12.832Z,73.75
2022-09-22T08:36:34.607Z,75.92
2022-09-22T08:42:08.449Z,74.35
2022-09-22T08:47:59.961Z,73.62
2022-09-22T08:53:23.348Z,71.86
2022-09-22T08:59:02.955Z,71.56
2022-09-22T09:04:52.930Z,71.50
2022-09-22T09:10:26.848Z,69.21
2022-09-22T09:16:01.764Z,67.89
2022-09-22T09:21:25.417Z,69.02
2022-09-22T09:26:48.363Z,68.41
2022-09-22T09:32:25.183Z,67.20
2022-09-22T09:37:48.719Z,66.05
2022-09-22T09:43:10.725Z,64.14
2022-09-22T09:48:43.412Z,65.54
2022-09-22T09:54:13.159Z,64.04
2022-09-22T09:59:59.639Z,62.66
2022-09-22T10:05:26.537Z,63.77
2022-09-22T10:10:48.876Z,62.13
2022-09-22T10:16:28.826Z,61.19
2022-09-22T10:21:50.724Z,60.99
2022-09-22T10:27:24.220Z,59.96
2022-09-22T10:33:03.565Z,58.70
2022-09-22T10:38:29.382Z,58.37
2022-09-22T10:44:27.329Z,57.99
2022-09-22T10:50:03.046Z,57.74
2022-09-22T10:55:33.650Z,57.18
2022-09-22T11:01:11.480Z,54.08
2022-09-22T11:07:06.875Z,54.15
2022-09-22T11:12:50.213Z,53.00
2022-09-22T11:18:39.545Z,53.05
2022-09-22T11:24:05.749Z,52.41
2022-09-22T11:30:11.266Z,51.54
2022-09-22T11:35:48.330Z,50.71
2022-09-22T11:41:25.900Z,49.45
2022-09-22T11:46:56.591Z,50.65
2022-09-22T11:52:26.767Z,48.58
2022-09-22T11:57:55.649Z,48.70
2022-09-22T12:03:27.311Z,48.77
2022-09-22T12:14:22.431Z,47.74
2022-09-22T12:20:12.734Z,47.11
2022-09-22T12:25:54.441Z,47.32
2022-09-22T12:31:18.783Z,46.85
2022-09-22T12:36:42.043Z,45.18
2022-09-22T12:42:15.584Z,44.10
2022-09-22T12:47:40.901Z,44.27
2022-09-22T12:53:12.318Z,45.13
2022-09-22T12:58:34.051Z,45.00
2022-09-22T13:04:11.766Z,44.10
2022-09-22T13:09:33.572Z,44.68
2022-09-22T13:15:07.494Z,43.86
2022-09-22T13:20:34.329Z,44.94
2022-09-22T13:26:08.259Z,44.73
2022-09-22T13:31:46.230Z,43.96
2022-09-22T13:37:16.681Z,43.50
2022-09-22T13:42:42.678Z,43.94
2022-09-22T13:48:11.539Z,44.12
2022-09-22T13:53:33.411Z,43.11
2022-09-22T13:58:57.429Z,42.95
2022-09-22T14:04:27.670Z,43.80
2022-09-22T14:09:50.627Z,42.97
2022-09-22T14:15:37.259Z,42.11
2022-09-22T14:20:59.121Z,41.30
2022-09-22T14:26:35.634Z,41.59
2022-09-22T14:32:13.028Z,41.34
2022-09-22T14:37:41.632Z,42.14
2022-09-22T14:43:09.693Z,40.85
2022-09-22T14:48:33.778Z,40.51
2022-09-22T14:54:02.694Z,41.21
2022-09-22T14:59:43.280Z,40.82
2022-09-22T15:05:05.452Z,41.54
2022-09-22T15:10:31.784Z,41.37
2022-09-22T15:15:53.806Z,41.20
2022-09-22T15:21:15.742Z,42.08
2022-09-22T15:26:38.589Z,41.85
2022-09-22T15:32:03.769Z,41.50
2022-09-22T15:37:25.581Z,41.65
2022-09-22T15:43:11.740Z,42.39
2022-09-22T15:48:37.029Z,42.36
2022-09-22T15:53:58.859Z,42.94
2022-09-22T15:59:26.790Z,42.90
2022-09-22T16:04:48.870Z,43.52
2022-09-22T16:10:20.871Z,43.91
2022-09-22T16:15:42.646Z,44.38
2022-09-22T16:21:18.517Z,43.67
2022-09-22T16:26:40.465Z,43.72
2022-09-22T16:32:02.231Z,43.73
2022-09-22T16:37:23.985Z,44.89
2022-09-22T16:42:46.033Z,45.55
2022-09-22T16:48:07.838Z,45.89
2022-09-22T16:53:29.584Z,46.33
2022-09-22T16:58:52.074Z,46.16
2022-09-22T17:04:16.353Z,46.47
2022-09-22T17:09:38.066Z,46.81
2022-09-22T17:14:59.751Z,47.92
2022-09-22T17:20:21.979Z,48.79
2022-09-22T17:25:46.708Z,49.85
2022-09-22T17:31:08.507Z,50.18
2022-09-22T17:36:30.657Z,50.51
2022-09-22T17:41:53.163Z,50.72
2022-09-22T17:47:33.553Z,51.93
2022-09-22T17:53:21.453Z,52.99
2022-09-22T17:58:43.321Z,53.13
2022-09-22T18:04:05.143Z,52.82
2022-09-22T18:09:27.006Z,52.95
2022-09-22T18:14:52.157Z,53.55
2022-09-22T18:20:20.727Z,53.46
2022-09-22T18:25:42.434Z,54.22
2022-09-22T18:31:04.454Z,54.32
2022-09-22T18:36:26.177Z,55.21
2022-09-22T18:41:48.200Z,55.53
2022-09-22T18:47:14.336Z,55.55
2022-09-22T18:52:37.208Z,55.96
2022-09-22T18:57:58.918Z,56.87
2022-09-22T19:03:20.652Z,56.37
2022-09-22T19:08:42.693Z,56.58
2022-09-22T19:14:04.662Z,56.50
2022-09-22T19:19:29.193Z,56.75
2022-09-22T19:24:53.463Z,57.32
2022-09-22T19:30:16.958Z,57.57
2022-09-22T19:35:41.256Z,58.02
2022-09-22T19:41:02.992Z,57.25
2022-09-22T19:46:24.809Z,58.06
2022-09-22T19:51:46.553Z,58.28
2022-09-22T19:57:08.258Z,59.62
2022-09-22T20:02:33.039Z,60.42
2022-09-22T20:07:55.968Z,61.09
2022-09-22T20:13:36.515Z,60.54
2022-09-22T20:18:58.232Z,61.64
2022-09-22T20:24:22.132Z,61.44
2022-09-22T20:29:43.946Z,62.29
2022-09-22T20:35:06.096Z,62.61
2022-09-22T20:40:29.011Z,62.55
2022-09-22T20:45:50.851Z,63.19
2022-09-22T20:51:13.025Z,63.26
2022-09-22T20:56:38.317Z,64.62
2022-09-22T21:02:02.491Z,63.75
2022-09-22T21:07:24.471Z,64.29
2022-09-22T21:12:46.187Z,64.32
2022-09-22T21:18:07.891Z,64.83
2022-09-22T21:23:30.033Z,65.74
2022-09-22T21:28:52.515Z,66.22
2022-09-22T21:34:14.236Z,66.21
2022-09-22T21:39:35.944Z,66.32
2022-09-22T21:44:57.701Z,66.43
2022-09-22T21:50:19.615Z,66.85
2022-09-22T21:55:41.401Z,67.95
2022-09-22T22:01:08.406Z,68.40
2022-09-22T22:06:34.351Z,68.30
2022-09-22T22:11:58.823Z,68.80
2022-09-22T22:17:20.510Z,68.01
2022-09-22T22:22:42.188Z,67.62
2022-09-22T22:28:03.893Z,67.32
2022-09-22T22:33:25.604Z,68.27
2022-09-22T22:38:47.333Z,68.16
2022-09-22T22:44:09.059Z,68.62
2022-09-22T22:49:31.268Z,69.23
2022-09-22T22:54:54.026Z,68.67
2022-09-22T23:00:15.830Z,69.11
2022-09-22T23:05:43.076Z,70.06
2022-09-22T23:11:17.856Z,70.49
2022-09-22T23:16:43.138Z,70.61
2022-09-22T23:22:05.639Z,70.33
2022-09-22T23:27:28.339Z,69.82
2022-09-22T23:32:50.115Z,70.63
2022-09-22T23:38:17.274Z,70.42
2022-09-22T23:43:39.689Z,71.21
2022-09-22T23:49:02.218Z,70.87
2022-09-22T23:54:23.962Z,70.71
2022-09-22T23:59:45.646Z,71.34
